Aérodrome :
LOGIN :

S'inscrire | Disclaimer

   EN    FR    IT 

 










Légende :    VFR   VFR Marginal   IFR   IFR Intensif   IFR Très Intensif
Visi : 
Plafond : 
>= 8 km
>= 3000ft
5 à 8 km
1000 à 3000 ft
1500m à 5 km
500 à 1000 ft
800 à 1500m
200 à 500 ft
< 800m
< 200 ft
Symboles :   Orages  Brouillard  Fortes neiges  Fortes précipitations  Vent > 20 kt
SIGMETs :   Divers  Orages  Givrage  Turbulence  Onde Orograph.  Cendres Volcan.







- Altitude de l'aérodrome : 146 ft
- Code IATA : RKE


EKRK - Roskilde Tune

DERNIER METAR :
  • 201920Z AUTO 23007KT 0750NDV R11/P1500N R29/P1500N FZFG FEW001/// SCT004/// M02/M02 Q1019 R99/290094 R99/720492

METARs EXPIRÉS :
  • 201850Z AUTO 23007KT 3000NDV BR SCT060/// M02/M02 Q1019 R99/290094 R99/720492
  • 201820Z AUTO 24005KT 5000NDV FEW035/// BKN060/// M01/M02 Q1019 R99/290094 R99/720492
  • 201750Z AUTO 25006KT 5000NDV FEW039/// BKN060/// M01/M02 Q1019 R99/290094 R99/720492
  • 201720Z AUTO 24004KT 5000NDV FEW060/// M02/M02 Q1019 R99/290094 R99/720492
  • 201650Z AUTO 23006KT 1100NDV R11/P1500N R29/P1500N BR FEW001/// SCT004/// M02/M03 Q1019 R99/290094 R99/720492

TAF AMD TAF EKRK
Valide du 20 à 19h jusqu'au 21 à 03h UTC


201813Z 2019/2103 24005KT 5000 FEW003
TEMPO 2019/2021 1200 BR
TEMPO 2021/2103 0500 FZFG VV001
Pas de NOTAMs connus pour ce terrain.



MET'MAP, la Météo Aéronautique d'un coup d'oeil ! - Copyright ORBIFLY Décembre 2007 - Disclaimer

ORBIFLY MET'MAP TEAM :

Programmation & Développement : Alexandra Zaïnal
Conception & Développement : Baudouin d'Aumeries
Co-Programmation & Développement : Marc-Olivier Méhu
Soutien technique & logistique : Manuel Goepfert

Contact : metmap@orbifly.com




SOURCES & CREDITS :

   NOAA